Tiempo atmosférico en la estación meteorológica de Alcañiz, Teruel (320 m.)



Fecha
DESCASC
Temp. máxima en grados centígrados (hora)
DESCASC
Temp. mínima en grados centígrados (hora)
DESCASC
Temp. media en grados centígrados
DESCASC
Racha de viento máxima en m/sg (hora)
DESCASC
Velocidad máxima media en intervalos de 10 minutos(hora)
DESCASC
Precipitaciones diarias en mm
DESCASC
Precipitaciones de 00:00 a 06:00 en mm
DESCASC
Precipitaciones de 06:00 a 12:00 en mm
DESCASC
Precipitaciones de 12:00 a 18:00 en mm
DESCASC
Precipitaciones de 18:00 a 24:00 en mm
DESCASC
20-05-2018 21.3 (14:00) 12 (07:00) 16.6 8.61 (15:50) 5.28 (15:20) 0.4 0.4 0 0 0
19-05-2018 25.5 (16:40) 13.1 (05:50) 19.3 7.78 (17:10) 3.61 (22:20) 8.8 0 0 0 8.8
18-05-2018 24.9 (17:20) 10.5 (00:00) 17.7 7.5 (17:50) 3.33 (18:20) 0 0 0 0 0
17-05-2018 25.1 (17:30) 8.7 (00:00) 16.9 7.78 (18:50) 4.17 (18:40) 0 0 0 0 0
16-05-2018 24.4 (17:00) 7.1 (00:00) 15.7 6.11 (15:50) 3.06 (09:40) 0 0 0 0 0
15-05-2018 21.4 (17:50) 7.7 (00:00) 14.5 11.94 (09:40) 6.11 (09:40) 0 0 0 0 0
14-05-2018 18.5 (17:30) 8 (00:00) 13.3 16.11 (12:10) 7.78 (15:50) 0 0 0 0 0
13-05-2018 18.2 (17:30) 5.6 (00:00) 11.9 15.28 (11:10) 8.61 (11:10) 0 0 0 0 0
12-05-2018 24.7 (12:20) 9.4 (00:00) 17.1 15.83 (19:50) 7.78 (19:50) 3.8 0 0 3.3 0.5
11-05-2018 26.9 (17:30) 6.2 (06:40) 16.5 7.22 (14:20) 3.89 (14:00) 0 0 0 0 0
10-05-2018 22.2 (17:50) 12.2 (00:00) 17.2 11.94 (16:00) 6.11 (09:50) 0 0 0 0 0
09-05-2018 24.3 (17:10) 11.4 (00:00) 17.8 10.28 (22:50) 5.56 (09:00) 0 0 0 0 0
08-05-2018 25.2 (17:30) 13.2 (00:00) 19.2 12.5 (22:40) 6.39 (20:20) 1.7 0 0 0 1.7
07-05-2018 23.4 (16:20) 11.9 (00:00) 17.6 4.72 (18:40) 2.78 (19:00) 0.3 0.1 0.2 0 0
06-05-2018 21.7 (18:30) 8.5 (06:40) 15.1 5 (17:10) 2.78 (17:50) 0 0 0 0 0
05-05-2018 22.1 (15:50) 5.9 (00:00) 14 6.11 (09:40) 3.33 (12:00) 0 0 0 0 0
04-05-2018 20.9 (16:40) 6.9 (00:00) 13.9 11.67 (11:00) 6.11 (10:50) 0 0 0 0 0
03-05-2018 16.9 (16:20) 8.8 (00:00) 12.8 16.94 (08:50) 8.33 (10:40) 0 0 0 0 0
02-05-2018 19.9 (18:10) 2.4 (00:00) 11.1 11.67 (20:00) 6.67 (19:20) 0 0 0 0 0
01-05-2018 16.8 (16:30) 4.6 (07:10) 10.7 13.61 (16:20) 5 (11:40) 0 0 0 0 0
30-04-2018 15.8 (17:30) 5 (00:00) 10.4 10.56 (19:40) 4.44 (19:40) 0 0 0 0 0
29-04-2018 16.9 (00:00) 9.6 (00:00) 13.3 14.17 (14:50) 8.33 (15:10) 6.3 6.3 0 0 0
28-04-2018 24.7 (17:10) 7.1 (00:00) 15.9 10.83 (20:00) 5.83 (20:10) 1 0 0 0 1
27-04-2018 24.1 (15:20) 8.8 (00:00) 16.5 8.89 (19:10) 3.89 (16:30) 3.2 0 0 0.6 2.6
26-04-2018 22.9 (16:30) 9.8 (00:00) 16.3 8.33 (11:30) 4.17 (10:20) 0 0 0 0 0
25-04-2018 26.7 (17:30) 7.5 (00:00) 17.1 12.22 (23:00) 6.11 (23:00) 0 0 0 0 0
24-04-2018 26.8 (16:50) 9.3 (00:00) 18 8.89 (18:00) 3.89 (15:30) 0 0 0 0 0
23-04-2018 20.1 (14:30) 11.4 (07:00) 15.8 7.22 (15:30) 3.89 (15:20) 0 0 0 0 0
22-04-2018 23.5 (19:10) 8.4 (00:00) 15.9 6.39 (16:20) 3.89 (16:10) 0 0 0 0 0

Gráficas

Temp. máximas Temp. mínimas Temp. medias Precipitaciones Rachas de viento máximas Velocidades máximas media en intervalos de 10 minutos

Datos horarios

Fecha y hora oficial Temperatura (ºC) Velocidad del viento (km/h) Dirección del viento Racha (km/h) Dirección de racha Precipitación (mm) Presión (hPa) Tendencia (hPa) Humedad (%)
2018-05-21 23:00:00 16.2 5 Este 9 Este 0 -- -- 72
2018-05-21 22:00:00 16.6 4 Nordeste 9 Este 0 -- -- 70
2018-05-21 21:00:00 16.6 3 Sudeste 13 Sudeste 0 -- -- 69
2018-05-21 20:00:00 16.9 8 Sudoeste 35 Oeste 0 -- -- 67
2018-05-21 19:00:00 17.8 19 Oeste 34 Oeste 0 -- -- 59
2018-05-21 18:00:00 20.7 14 Sur 38 Sur 0 -- -- 50
2018-05-21 17:00:00 24.8 9 Este 50 Este 0 -- -- 38
2018-05-21 16:00:00 24.5 13 Este 24 Este 0 -- -- 37
2018-05-21 15:00:00 25.5 8 Nordeste 26 Norte 0 -- -- 39
2018-05-21 14:00:00 24.5 8 Este 22 Este 0 -- -- 42
2018-05-21 13:00:00 22.5 6 Este 18 Este 0 -- -- 42
2018-05-21 12:00:00 21.5 6 Nordeste 12 Este 0 -- -- 51
2018-05-21 11:00:00 19.8 4 Este 11 Este 0 -- -- 56
2018-05-21 10:00:00 17.2 2 Oeste 8 Oeste 0 -- -- 70
2018-05-21 09:00:00 15 0 Calma 6 Sudoeste 0 -- -- 78
2018-05-21 08:00:00 13.1 4 Sudoeste 7 Sudoeste 0 -- -- 86
2018-05-21 07:00:00 12.3 3 Sudoeste 8 Oeste 0 -- -- 88
2018-05-21 06:00:00 12.5 0 Calma 3 Oeste 0 -- -- 90
2018-05-21 05:00:00 12.6 3 Sudoeste 6 Sudoeste 0 -- -- 91
2018-05-21 04:00:00 13.7 0 Calma 4 Oeste 0 -- -- 90
2018-05-21 03:00:00 13.5 4 Oeste 8 Oeste 0 -- -- 89
2018-05-21 02:00:00 14.6 0 Calma -- -- 0 -- -- 84
2018-05-21 01:00:00 15.4 0 Calma 6 Este 0 -- -- 84
2018-05-21 00:00:00 15.8 4 Este 6 Este 0 -- -- 82
2018-05-20 23:00:00 16 0 Calma 10 Este 0 -- -- 82
2018-05-20 22:00:00 16.2 0 Calma 6 Este 0 -- -- 79
2018-05-20 21:00:00 16.6 0 Calma 7 Este 0 -- -- 76
2018-05-20 20:00:00 17.2 0 Calma 8 Sur 0 -- -- 73
2018-05-20 19:00:00 16 5 Sur 20 Sur 0 -- -- 81
2018-05-20 18:00:00 16.2 11 Sur 21 Sur 0 -- -- 74
2018-05-20 17:00:00 16.5 10 Sur 27 Sur 0 -- -- 71
2018-05-20 16:00:00 17.2 10 Sudeste 31 Sudeste 0 -- -- 62
2018-05-20 15:00:00 20.4 3 Este 9 Este 0 -- -- 52
2018-05-20 14:00:00 20.4 3 Sudeste 14 Sur 0 -- -- 50
2018-05-20 13:00:00 19.7 6 Sudoeste 17 Oeste 0 -- -- 55
2018-05-20 12:00:00 19.2 7 Oeste 15 Oeste 0 -- -- 59
2018-05-20 11:00:00 17.3 3 Sudoeste 10 Sudoeste 0 -- -- 67
2018-05-20 10:00:00 16.2 5 Sudoeste 12 Oeste 0 -- -- 73
2018-05-20 09:00:00 14.7 2 Sudoeste 8 Sudoeste 0 -- -- 91
2018-05-20 08:00:00 13 0 Calma 7 Oeste 0 -- -- 98
2018-05-20 07:00:00 12.1 4 Oeste 9 Oeste 0 -- -- 98
2018-05-20 06:00:00 12.5 2 Oeste 6 Este 0 -- -- 97
2018-05-20 05:00:00 12.8 0 Calma 6 Oeste 0 -- -- 97
2018-05-20 04:00:00 13.4 0 Calma 9 Este 0 -- -- 96
2018-05-20 03:00:00 13.8 5 Este 12 Este 0 -- -- 97
2018-05-20 02:00:00 14 2 Sur 12 Sudoeste 0.2 -- -- 95
2018-05-20 01:00:00 14.1 6 Sudoeste 11 Sudoeste 0.2 -- -- 96
2018-05-20 00:00:00 14.3 4 Nordeste 19 Este 1.5 -- -- 95
2018-05-19 23:00:00 14.1 12 Este 21 Este 1.9 -- -- 97
2018-05-19 22:00:00 14.5 8 Nordeste 27 Norte 5.4 -- -- 94
2018-05-19 21:00:00 19.5 10 Noroeste 21 Noroeste 0 -- -- 57
2018-05-19 20:00:00 21.8 10 Este 17 Este 0 -- -- 49
2018-05-19 19:00:00 22.4 8 Sur 20 Sur 0 -- -- 48
2018-05-19 18:00:00 23.3 8 Este 28 Este 0 -- -- 44
2018-05-19 17:00:00 23.9 7 Sudeste 23 Este 0 -- -- 42
2018-05-19 16:00:00 24.7 4 Norte 15 Noroeste 0 -- -- 39
2018-05-19 15:00:00 24.2 4 Sur 14 Sudoeste 0 -- -- 42
2018-05-19 14:00:00 23 6 Sudoeste 18 Sudoeste 0 -- -- 43
2018-05-19 13:00:00 20.9 3 Noroeste 15 Sudoeste 0 -- -- 56
2018-05-19 12:00:00 18.9 7 Oeste 18 Sudoeste 0 -- -- 68
2018-05-19 11:00:00 17.6 7 Sudoeste 14 Oeste 0 -- -- 74
2018-05-19 10:00:00 15.4 9 Oeste 14 Oeste 0 -- -- 81
2018-05-19 09:00:00 14.5 5 Sur 9 Sur 0 -- -- 84
2018-05-19 08:00:00 14.3 3 Noroeste 11 Sudoeste 0 -- -- 85
2018-05-19 07:00:00 13.6 6 Oeste 12 Oeste 0 -- -- 87
2018-05-19 06:00:00 13.3 3 Sur 7 Sur 0 -- -- 85
2018-05-19 05:00:00 13.6 4 Oeste 8 Oeste 0 -- -- 83
2018-05-19 04:00:00 13.6 4 Sudoeste 7 Sur 0 -- -- 84
2018-05-19 03:00:00 14 0 Calma 8 Noroeste 0 -- -- 81
2018-05-19 02:00:00 14.6 3 Sudoeste 11 Oeste 0 -- -- 77
2018-05-19 01:00:00 14.3 0 Calma 5 Sur 0 -- -- 78
2018-05-19 00:00:00 14.6 0 Calma 9 Sur 0 -- -- 77
2018-05-18 23:00:00 16.5 5 Oeste 12 Oeste 0 -- -- 71
2018-05-18 22:00:00 17.9 3 Sudeste 8 Sudeste 0 -- -- 64
2018-05-18 21:00:00 19 2 Sudeste 12 Este 0 -- -- 63
2018-05-18 20:00:00 20.7 4 Sudeste 17 Sur 0 -- -- 52
2018-05-18 19:00:00 20.7 7 Sur 26 Sur 0 -- -- 52
2018-05-18 18:00:00 22.2 8 Sur 27 Sudoeste 0 -- -- 48
2018-05-18 17:00:00 22.4 0 Calma 13 Este 0 -- -- 49
2018-05-18 16:00:00 22.7 6 Nordeste 17 Este 0 -- -- 49
2018-05-18 15:00:00 21.7 6 Este 18 Sudeste 0 -- -- 53
2018-05-18 14:00:00 19.5 6 Este 17 Sudoeste 0 -- -- 62
2018-05-18 13:00:00 19 4 Sudoeste 18 Oeste 0 -- -- 67
2018-05-18 12:00:00 16.3 3 Noroeste 8 Oeste 0 -- -- 75
2018-05-18 11:00:00 15.6 2 Noroeste 10 Norte 0 -- -- 76
2018-05-18 10:00:00 15.1 5 Noroeste 15 Oeste 0 -- -- 78
2018-05-18 09:00:00 13.2 0 Calma 4 Sur 0 -- -- 86
2018-05-18 08:00:00 11.5 0 Calma 5 Sudoeste 0 -- -- 88
2018-05-18 07:00:00 11.1 0 Calma 5 Sudoeste 0 -- -- 86
2018-05-18 06:00:00 10.8 2 Sudoeste 7 Oeste 0 -- -- 83
2018-05-18 05:00:00 12.1 5 Sudoeste 12 Sudoeste 0 -- -- 77
2018-05-18 04:00:00 12.8 8 Sudoeste 14 Sudoeste 0 -- -- 74
2018-05-18 03:00:00 13.8 5 Sudoeste 10 Sur 0 -- -- 76
2018-05-18 02:00:00 15.7 6 Sur 13 Sur 0 -- -- 70
2018-05-18 01:00:00 16.4 4 Sudeste 15 Sur 0 -- -- 68
2018-05-18 00:00:00 16.8 6 Sudoeste 10 Sudoeste 0 -- -- 64
2018-05-17 23:00:00 18 3 Sudeste 13 Sudeste 0 -- -- 59
2018-05-17 22:00:00 18.7 5 Sudeste 13 Sur 0 -- -- 56
2018-05-17 21:00:00 20.1 6 Sur 24 Sur 0 -- -- 51
2018-05-17 20:00:00 21.4 12 Sur 25 Sur 0 -- -- 48
2018-05-17 19:00:00 22.3 14 Sur 28 Sudoeste 0 -- -- 47
2018-05-17 18:00:00 24.4 2 Sudoeste 18 Este 0 -- -- 39
2018-05-17 17:00:00 24.4 5 Nordeste 18 Nordeste 0 -- -- 40
2018-05-17 16:00:00 23.5 8 Nordeste 19 Este 0 -- -- 43
2018-05-17 15:00:00 22.4 10 Este 23 Este 0 -- -- 47
2018-05-17 14:00:00 21.5 5 Nordeste 18 Norte 0 -- -- 49
2018-05-17 13:00:00 19.9 5 Este 17 Norte 0 -- -- 53
2018-05-17 12:00:00 18.4 6 Norte 15 Norte 0 -- -- 58
2018-05-17 11:00:00 16.6 4 Oeste 15 Oeste 0 -- -- 64
2018-05-17 10:00:00 14.8 7 Oeste 11 Oeste 0 -- -- 70
2018-05-17 09:00:00 12.5 4 Oeste 8 Oeste 0 -- -- 80
2018-05-17 08:00:00 10.1 0 Calma 5 Oeste 0 -- -- 91
2018-05-17 07:00:00 9.1 0 Calma 6 Sudoeste 0 -- -- 91
2018-05-17 06:00:00 9.5 0 Calma 8 Oeste 0 -- -- 89
2018-05-17 05:00:00 9.7 5 Oeste 9 Sudoeste 0 -- -- 88
2018-05-17 04:00:00 11.1 0 Calma 4 Sudeste 0 -- -- 81
2018-05-17 03:00:00 12.8 0 Calma 16 Oeste 0 -- -- 74
2018-05-17 02:00:00 13.9 6 Sudoeste 13 Oeste 0 -- -- 69
2018-05-17 01:00:00 15.3 5 Sur 19 Norte 0 -- -- 65
2018-05-17 00:00:00 16.7 10 Noroeste 18 Noroeste 0 -- -- 62
2018-05-16 23:00:00 16.8 5 Oeste 8 Sur 0 -- -- 59
2018-05-16 22:00:00 18.7 0 Calma 13 Sur 0 -- -- 49
2018-05-16 21:00:00 21.4 2 Nordeste 8 Nordeste 0 -- -- 39
2018-05-16 20:00:00 23.3 3 Este 16 Este 0 -- -- 37
2018-05-16 19:00:00 23.6 6 Este 17 Nordeste 0 -- -- 38
2018-05-16 18:00:00 23.5 4 Nordeste 15 Sudeste 0 -- -- 39
2018-05-16 17:00:00 24 8 Noroeste 19 Norte 0 -- -- 41
2018-05-16 16:00:00 22.5 8 Norte 22 Norte 0 -- -- 43
2018-05-16 15:00:00 21.6 4 Norte 16 Norte 0 -- -- 45
2018-05-16 14:00:00 20.6 5 Noroeste 19 Noroeste 0 -- -- 47
2018-05-16 13:00:00 18.6 7 Oeste 17 Noroeste 0 -- -- 51
2018-05-16 12:00:00 17.5 7 Oeste 17 Oeste 0 -- -- 55
2018-05-16 11:00:00 15.3 9 Sudoeste 20 Sudoeste 0 -- -- 59
2018-05-16 10:00:00 13.9 10 Oeste 21 Oeste 0 -- -- 62
2018-05-16 09:00:00 11.9 6 Sudoeste 13 Sudoeste 0 -- -- 67
2018-05-16 08:00:00 8.9 0 Calma -- -- 0 -- -- 78
2018-05-16 07:00:00 7.3 0 Calma -- -- 0 -- -- 84
2018-05-16 06:00:00 8.4 2 Sur 5 Sudoeste 0 -- -- 82
2018-05-16 05:00:00 10 3 Sudoeste 10 Sudoeste 0 -- -- 77
2018-05-16 04:00:00 10.7 5 Sudoeste 12 Oeste 0 -- -- 76
2018-05-16 03:00:00 10.2 2 Sur 7 Sudoeste 0 -- -- 79
2018-05-16 02:00:00 10.5 0 Calma 5 Sudoeste 0 -- -- 77
2018-05-16 01:00:00 10.8 3 Sudoeste 9 Oeste 0 -- -- 75
2018-05-16 00:00:00 11.8 5 Oeste 11 Sudoeste 0 -- -- 70
2018-05-15 23:00:00 12.6 5 Oeste 18 Oeste 0 -- -- 67
2018-05-15 22:00:00 14.3 11 Oeste 22 Oeste 0 -- -- 62
2018-05-15 21:00:00 16.2 11 Noroeste 27 Oeste 0 -- -- 55
2018-05-15 20:00:00 18.5 18 Oeste 33 Noroeste 0 -- -- 50
2018-05-15 19:00:00 20.2 18 Noroeste 35 Sudoeste 0 -- -- 46
2018-05-15 18:00:00 20.4 15 Oeste 29 Oeste 0 -- -- 45
2018-05-15 17:00:00 20.3 14 Oeste 31 Noroeste 0 -- -- 46
2018-05-15 16:00:00 19.2 14 Oeste 28 Oeste 0 -- -- 47
2018-05-15 15:00:00 18.8 14 Noroeste 34 Oeste 0 -- -- 48
2018-05-15 14:00:00 18.3 13 Oeste 35 Oeste 0 -- -- 51
2018-05-15 13:00:00 16.6 19 Oeste 36 Oeste 0 -- -- 54
2018-05-15 12:00:00 14.9 17 Oeste 41 Oeste 0 -- -- 57
2018-05-15 11:00:00 13.2 19 Oeste 35 Noroeste 0 -- -- 61
2018-05-15 10:00:00 12.6 21 Oeste 43 Oeste 0 -- -- 64
2018-05-15 09:00:00 11.3 19 Oeste 35 Oeste 0 -- -- 67
2018-05-15 08:00:00 9.7 11 Oeste 22 Oeste 0 -- -- 71
2018-05-15 07:00:00 7.8 7 Oeste 18 Oeste 0 -- -- 75
2018-05-15 06:00:00 8 8 Sudoeste 16 Oeste 0 -- -- 74
2018-05-15 05:00:00 8.4 8 Sudoeste 17 Sudoeste 0 -- -- 72
2018-05-15 04:00:00 8.7 7 Sudoeste 20 Oeste 0 -- -- 69
2018-05-15 03:00:00 8.8 9 Sudoeste 21 Sudoeste 0 -- -- 67
2018-05-15 02:00:00 8.9 10 Sudoeste 25 Oeste 0 -- -- 65
2018-05-15 01:00:00 9.7 12 Oeste 28 Oeste 0 -- -- 64
2018-05-15 00:00:00 10.2 16 Oeste 37 Oeste 0 -- -- 63
2018-05-14 23:00:00 11 17 Oeste 40 Oeste 0 -- -- 61
2018-05-14 22:00:00 11.9 17 Oeste 48 Noroeste 0 -- -- 60
2018-05-14 21:00:00 13.3 26 Noroeste 42 Noroeste 0 -- -- 52
2018-05-14 20:00:00 15.2 26 Noroeste 44 Noroeste 0 -- -- 45
2018-05-14 19:00:00 16.2 23 Noroeste 48 Noroeste 0 -- -- 43
2018-05-14 18:00:00 17 27 Noroeste 48 Oeste 0 -- -- 40
2018-05-14 17:00:00 17.7 22 Noroeste 49 Noroeste 0 -- -- 40
2018-05-14 16:00:00 17.1 26 Noroeste 51 Noroeste 0 -- -- 41
2018-05-14 15:00:00 17.2 23 Noroeste 50 Noroeste 0 -- -- 43
2018-05-14 14:00:00 16.3 26 Oeste 45 Oeste 0 -- -- 45
2018-05-14 13:00:00 15.9 26 Noroeste 58 Oeste 0 -- -- 48
2018-05-14 12:00:00 15.1 23 Oeste 48 Oeste 0 -- -- 53
2018-05-14 11:00:00 13.5 25 Noroeste 45 Noroeste 0 -- -- 59
2018-05-14 10:00:00 11.7 22 Oeste 45 Noroeste 0 -- -- 64
2018-05-14 09:00:00 10.2 21 Oeste 43 Oeste 0 -- -- 72
2018-05-14 08:00:00 8.8 17 Oeste 29 Noroeste 0 -- -- 77
2018-05-14 07:00:00 8.1 14 Oeste 35 Oeste 0 -- -- 78
2018-05-14 06:00:00 8.4 15 Oeste 30 Oeste 0 -- -- 75
2018-05-14 05:00:00 9.1 16 Oeste 28 Oeste 0 -- -- 71
2018-05-14 04:00:00 9.1 11 Oeste 32 Oeste 0 -- -- 68
2018-05-14 03:00:00 10.1 18 Oeste 33 Oeste 0 -- -- 63
2018-05-14 02:00:00 10.2 13 Oeste 26 Oeste 0 -- -- 62
2018-05-14 01:00:00 10.5 13 Noroeste 27 Noroeste 0 -- -- 58
2018-05-11 20:00:00 24.9 6 Nordeste 16 Este 0 -- -- 39
2018-05-11 19:00:00 25.5 9 Nordeste 19 Este 0 -- -- 38
2018-05-11 18:00:00 25.8 8 Norte 19 Norte 0 -- -- 37
2018-05-11 17:00:00 25.9 11 Norte 22 Nordeste 0 -- -- 38
2018-05-11 16:00:00 25.6 7 Nordeste 21 Nordeste 0 -- -- 40
2018-05-11 15:00:00 24.1 8 Nordeste 26 Nordeste 0 -- -- 43
2018-05-11 14:00:00 23.2 14 Nordeste 23 Este 0 -- -- 44
2018-05-11 13:00:00 22.3 6 Nordeste 18 Este 0 -- -- 47
2018-05-11 12:00:00 19 5 Este 12 Nordeste 0 -- -- 52
2018-05-11 11:00:00 17.1 4 Este 13 Este 0 -- -- 55
2018-05-11 10:00:00 14.8 3 Este 9 Este 0 -- -- 66
2018-05-11 09:00:00 11.3 0 Calma -- -- 0 -- -- 78
2018-05-11 08:00:00 7.6 0 Calma -- -- 0 -- -- 92
2018-05-11 07:00:00 6.2 0 Calma -- -- 0 -- -- 94
2018-05-11 06:00:00 6.8 0 Calma -- -- 0 -- -- 93
2018-05-11 05:00:00 6.8 0 Calma -- -- 0 -- -- 91
2018-05-11 04:00:00 7.8 0 Calma -- -- 0 -- -- 91
2018-05-11 03:00:00 7.9 0 Calma -- -- 0 -- -- 88
2018-05-11 02:00:00 9.2 0 Calma -- -- 0 -- -- 83
2018-05-11 01:00:00 10.7 0 Calma 0 Calma 0 -- -- 75
2018-05-11 00:00:00 12.2 0 Calma 9 Sur 0 -- -- 69
2018-05-10 23:00:00 13.7 4 Sur 18 Oeste 0 -- -- 61
2018-05-10 22:00:00 15.3 4 Noroeste 26 Oeste 0 -- -- 57
2018-05-10 21:00:00 17.1 13 Noroeste 27 Oeste 0 -- -- 52
2018-05-10 20:00:00 19.2 15 Oeste 29 Noroeste 0 -- -- 47
2018-05-10 19:00:00 20.8 13 Noroeste 27 Oeste 0 -- -- 44
2018-05-10 18:00:00 21.4 14 Oeste 33 Oeste 0 -- -- 42
2018-05-10 17:00:00 21.4 17 Oeste 36 Noroeste 0 -- -- 43
2018-05-10 16:00:00 21 18 Oeste 43 Oeste 0 -- -- 45
2018-05-10 15:00:00 19.9 15 Oeste 33 Oeste 0 -- -- 48
2018-05-10 14:00:00 18.6 14 Oeste 36 Oeste 0 -- -- 49
2018-05-10 13:00:00 17.6 18 Oeste 36 Oeste 0 -- -- 51
2018-05-10 12:00:00 16.5 19 Oeste 38 Oeste 0 -- -- 52
2018-05-10 11:00:00 14.7 15 Oeste 37 Oeste 0 -- -- 59
2018-05-10 10:00:00 13.7 21 Oeste 40 Oeste 0 -- -- 64
2018-05-10 09:00:00 13 19 Oeste 41 Oeste 0 -- -- 71
2018-05-10 08:00:00 12.7 18 Oeste 31 Oeste 0 -- -- 71
2018-05-10 07:00:00 12.6 16 Oeste 40 Oeste 0 -- -- 70
2018-05-10 06:00:00 12.7 18 Oeste 34 Oeste 0 -- -- 68
2018-05-10 05:00:00 13.3 12 Oeste 34 Oeste 0 -- -- 63
2018-05-10 04:00:00 13.9 15 Oeste 34 Oeste 0 -- -- 60
2018-05-10 03:00:00 14.5 14 Oeste 27 Oeste 0 -- -- 60
2018-05-10 02:00:00 15 14 Oeste 24 Oeste 0 -- -- 60
2018-05-10 01:00:00 15.4 10 Oeste 31 Oeste 0 -- -- 62
2018-05-10 00:00:00 16.4 15 Oeste 33 Oeste 0 -- -- 56
2018-05-09 23:00:00 17.2 15 Oeste 37 Oeste 0 -- -- 54
2018-05-09 22:00:00 17.8 14 Oeste 29 Noroeste 0 -- -- 55
2018-05-09 21:00:00 19.9 15 Noroeste 28 Noroeste 0 -- -- 49
2018-05-09 20:00:00 22.2 13 Noroeste 28 Noroeste 0 -- -- 43
2018-05-09 19:00:00 23.4 14 Noroeste 28 Noroeste 0 -- -- 39
2018-05-09 18:00:00 23.7 16 Noroeste 33 Oeste 0 -- -- 37
2018-05-09 17:00:00 23.7 15 Noroeste 34 Noroeste 0 -- -- 37
2018-05-09 16:00:00 23 16 Noroeste 34 Oeste 0 -- -- 41
2018-05-09 15:00:00 22.1 13 Noroeste 31 Sudoeste 0 -- -- 46
2018-05-09 14:00:00 21.4 12 Oeste 30 Oeste 0 -- -- 48
2018-05-09 13:00:00 19.2 12 Oeste 32 Noroeste 0 -- -- 51
2018-05-09 12:00:00 18 15 Noroeste 33 Oeste 0 -- -- 57
2018-05-09 11:00:00 15.7 17 Oeste 36 Oeste 0 -- -- 65
2018-05-09 10:00:00 15 17 Oeste 31 Oeste 0 -- -- 71
2018-05-09 09:00:00 13.3 20 Oeste 33 Oeste 0 -- -- 80
2018-05-09 08:00:00 12.4 11 Oeste 22 Sudoeste 0 -- -- 85
2018-05-09 07:00:00 11.8 3 Sudoeste 13 Oeste 0 -- -- 86
2018-05-09 06:00:00 11.9 4 Sur 13 Sudoeste 0 -- -- 85
2018-05-09 05:00:00 12.6 4 Sur 13 Sudoeste 0 -- -- 84
2018-05-09 04:00:00 13.1 8 Sudoeste 18 Sudoeste 0 -- -- 83
2018-05-09 03:00:00 13.3 6 Oeste 15 Oeste 0 -- -- 83
2018-05-09 02:00:00 13.8 8 Oeste 19 Oeste 0 -- -- 82
2018-05-09 01:00:00 14.4 5 Sudoeste 25 Oeste 0 -- -- 78
2018-05-09 00:00:00 15.8 12 Oeste 30 Oeste 0 -- -- 73
2018-05-08 23:00:00 16.5 17 Oeste 45 Noroeste 0 -- -- 71
2018-05-08 22:00:00 17.7 19 Noroeste 34 Sudoeste 0 -- -- 69
2018-05-08 21:00:00 19.1 13 Noroeste 38 Noroeste 1.7 -- -- 69
2018-05-08 20:00:00 23.1 2 Norte 11 Norte 0 -- -- 48
2018-05-08 19:00:00 24 7 Norte 15 Noroeste 0 -- -- 46
2018-05-08 18:00:00 24.5 5 Noroeste 19 Norte 0 -- -- 47
2018-05-08 17:00:00 23.4 9 Nordeste 21 Noroeste 0 -- -- 47
2018-05-08 16:00:00 23.9 8 Norte 28 Noroeste 0 -- -- 48
2018-05-08 15:00:00 23.2 12 Noroeste 23 Noroeste 0 -- -- 50
2018-05-08 14:00:00 22.6 9 Noroeste 19 Norte 0 -- -- 54
2018-05-08 13:00:00 21.1 10 Noroeste 23 Oeste 0 -- -- 62
2018-05-08 12:00:00 19.9 3 Sudeste 9 Sur 0 -- -- 68
2018-05-08 11:00:00 18.4 4 Sudoeste 9 Sudoeste 0 -- -- 72
2018-05-08 10:00:00 16.5 3 Sur 7 Sur 0 -- -- 81
2018-05-08 09:00:00 14.7 0 Calma 10 Sur 0 -- -- 88
2018-05-08 08:00:00 13.9 4 Sudoeste 8 Sudoeste 0 -- -- 90
2018-05-08 07:00:00 13.6 2 Sudoeste 6 Sudoeste 0 -- -- 90
2018-05-08 06:00:00 13.6 0 Calma 10 Norte 0 -- -- 92
2018-05-08 05:00:00 13.5 0 Calma 8 Sudoeste 0 -- -- 92
2018-05-08 04:00:00 13.5 0 Calma 3 Sudoeste 0 -- -- 90
2018-05-08 03:00:00 14.3 0 Calma 8 Oeste 0 -- -- 89
2018-05-08 02:00:00 13.8 2 Noroeste 6 Sur 0 -- -- 90
2018-05-08 01:00:00 14.7 3 Oeste 5 Sudoeste 0 -- -- 87
2018-05-08 00:00:00 15.7 4 Sudoeste 8 Sudoeste 0 -- -- 83
2018-05-07 23:00:00 18 0 Calma 10 Este 0 -- -- 72
2018-05-07 22:00:00 19.2 4 Nordeste 15 Este 0 -- -- 66
2018-05-07 21:00:00 20.2 9 Nordeste 16 Nordeste 0 -- -- 62
2018-05-07 20:00:00 21.1 6 Nordeste 14 Este 0 -- -- 56
2018-05-07 19:00:00 21.8 10 Nordeste 17 Este 0 -- -- 54
2018-05-07 18:00:00 22.8 5 Nordeste 12 Norte 0 -- -- 53
2018-05-07 17:00:00 22.2 4 Nordeste 13 Nordeste 0 -- -- 55
2018-05-07 16:00:00 22.7 4 Sur 12 Oeste 0 -- -- 58
2018-05-07 15:00:00 20.7 6 Oeste 13 Sudoeste 0 -- -- 64
2018-05-07 14:00:00 19.3 4 Sudoeste 13 Sudoeste 0 -- -- 68
2018-05-07 13:00:00 18.5 5 Noroeste 13 Oeste 0 -- -- 69
2018-05-07 12:00:00 18.2 3 Noroeste 11 Noroeste 0 -- -- 69
2018-05-07 11:00:00 17.1 2 Sudoeste 10 Sudoeste 0 -- -- 79
2018-05-07 10:00:00 14.6 0 Calma 5 Sur 0 -- -- 79
2018-05-07 09:00:00 13.9 0 Calma 9 Sudoeste 0 -- -- 82
2018-05-07 08:00:00 12.8 0 Calma 7 Oeste 0.1 -- -- 86
2018-05-07 07:00:00 12.7 3 Sur 9 Sudoeste 0.1 -- -- 83
2018-05-07 06:00:00 13.1 3 Sur 8 Sudoeste 0 -- -- 83
2018-05-07 05:00:00 13.1 5 Sur 10 Sur 0.1 -- -- 79
2018-05-07 04:00:00 13.5 6 Sudoeste 10 Sur 0 -- -- 75
2018-05-07 03:00:00 13.2 6 Sudoeste 10 Sudoeste 0 -- -- 78
2018-05-07 02:00:00 12.2 0 Calma 7 Oeste 0 -- -- 82
2018-05-07 01:00:00 12.7 0 Calma 6 Sudoeste 0 -- -- 81
2018-05-07 00:00:00 13.1 0 Calma -- -- 0 -- -- 79
2018-05-06 23:00:00 14.3 0 Calma 3 Este 0 -- -- 75
2018-05-06 22:00:00 17 0 Calma 7 Sur 0 -- -- 63
2018-05-06 21:00:00 19.2 3 Sur 10 Sur 0 -- -- 55
2018-05-06 20:00:00 20.8 6 Este 11 Este 0 -- -- 47
2018-05-06 19:00:00 21.2 7 Este 14 Este 0 -- -- 47
2018-05-06 18:00:00 20.8 5 Este 18 Este 0 -- -- 51
2018-05-06 17:00:00 21 10 Este 18 Este 0 -- -- 50
2018-05-06 16:00:00 21 4 Nordeste 9 Este 0 -- -- 48
2018-05-06 15:00:00 21 3 Sur 15 Nordeste 0 -- -- 49
2018-05-06 14:00:00 20.6 4 Nordeste 13 Este 0 -- -- 52
2018-05-06 13:00:00 20.5 3 Nordeste 15 Este 0 -- -- 52
2018-05-06 12:00:00 19.6 3 Norte 14 Oeste 0 -- -- 58
2018-05-06 11:00:00 18 4 Noroeste 17 Oeste 0 -- -- 63
2018-05-06 10:00:00 16.1 3 Oeste 9 Oeste 0 -- -- 73
2018-05-06 09:00:00 12.7 0 Calma 7 Sur 0 -- -- 86
2018-05-06 08:00:00 9.4 2 Sudoeste 7 Sudoeste 0 -- -- 95
2018-05-06 07:00:00 8.7 5 Oeste 8 Sudoeste 0 -- -- 96
2018-05-06 06:00:00 9.1 0 Calma 6 Oeste 0 -- -- 95
2018-05-06 05:00:00 9.9 0 Calma 6 Sudoeste 0 -- -- 94
2018-05-06 04:00:00 11 0 Calma -- -- 0 -- -- 93
2018-05-06 03:00:00 11.9 0 Calma 5 Noroeste 0 -- -- 91
2018-05-06 02:00:00 13.1 0 Calma 5 Oeste 0 -- -- 90
2018-05-06 01:00:00 15 0 Calma 5 Sudoeste 0 -- -- 81
2018-05-06 00:00:00 16.4 4 Sur 8 Sur 0 -- -- 70
2018-05-05 23:00:00 16.9 0 Calma 13 Nordeste 0 -- -- 66
2018-05-05 22:00:00 17.8 5 Nordeste 19 Nordeste 0 -- -- 62
2018-05-05 21:00:00 17.7 10 Norte 21 Nordeste 0 -- -- 62
2018-05-05 20:00:00 20.1 7 Nordeste 14 Nordeste 0 -- -- 47
2018-05-05 19:00:00 20.6 7 Nordeste 14 Nordeste 0 -- -- 45
2018-05-05 18:00:00 21.1 7 Nordeste 16 Nordeste 0 -- -- 45
2018-05-05 17:00:00 20.4 8 Este 16 Este 0 -- -- 47
2018-05-05 16:00:00 21.1 6 Sur 21 Este 0 -- -- 46
2018-05-05 15:00:00 19.8 3 Noroeste 19 Este 0 -- -- 48
2018-05-05 14:00:00 19.1 6 Oeste 19 Oeste 0 -- -- 50
2018-05-05 13:00:00 17 7 Oeste 21 Noroeste 0 -- -- 54
2018-05-05 12:00:00 16 12 Oeste 21 Oeste 0 -- -- 57
2018-05-05 11:00:00 14.4 7 Oeste 20 Oeste 0 -- -- 63
2018-05-05 10:00:00 13.4 11 Oeste 22 Oeste 0 -- -- 65
2018-05-05 09:00:00 11.4 4 Sudoeste 7 Sudoeste 0 -- -- 75
2018-05-05 08:00:00 8.1 0 Calma 5 Oeste 0 -- -- 87
2018-05-05 07:00:00 6.3 0 Calma -- -- 0 -- -- 89
2018-05-05 06:00:00 7.1 0 Calma -- -- 0 -- -- 86
2018-05-05 05:00:00 7.7 0 Calma 5 Sudoeste 0 -- -- 81
2018-05-05 04:00:00 8.8 0 Calma 6 Sur 0 -- -- 78
2018-05-05 03:00:00 8.6 0 Calma 6 Sudoeste 0 -- -- 75
2018-05-05 02:00:00 9.6 5 Sudoeste 15 Sudoeste 0 -- -- 71
2018-05-05 01:00:00 10.6 8 Oeste 17 Oeste 0 -- -- 67
2018-05-05 00:00:00 12.1 9 Sudoeste 23 Oeste 0 -- -- 63
2018-05-04 23:00:00 12.8 10 Oeste 35 Oeste 0 -- -- 61
2018-05-04 22:00:00 13.9 18 Oeste 33 Oeste 0 -- -- 56
2018-05-04 21:00:00 14.7 13 Noroeste 37 Oeste 0 -- -- 54
2018-05-04 20:00:00 16.4 19 Noroeste 36 Noroeste 0 -- -- 49
2018-05-04 19:00:00 17.6 17 Noroeste 30 Noroeste 0 -- -- 47
2018-05-04 18:00:00 18.2 17 Noroeste 30 Oeste 0 -- -- 44
2018-05-04 17:00:00 19.2 16 Oeste 31 Oeste 0 -- -- 42
2018-05-04 16:00:00 19.9 17 Noroeste 41 Oeste 0 -- -- 43
2018-05-04 15:00:00 19.1 18 Noroeste 33 Noroeste 0 -- -- 45
2018-05-04 14:00:00 17.2 18 Oeste 37 Oeste 0 -- -- 48
2018-05-04 13:00:00 17.1 16 Oeste 34 Oeste 0 -- -- 51
2018-05-04 12:00:00 15.1 21 Oeste 39 Oeste 0 -- -- 55
2018-05-04 11:00:00 13.3 21 Oeste 42 Oeste 0 -- -- 59
2018-05-04 10:00:00 12 18 Oeste 33 Noroeste 0 -- -- 65
2018-05-04 09:00:00 10 17 Oeste 29 Oeste 0 -- -- 69
2018-05-04 08:00:00 8.2 9 Sudoeste 18 Sudoeste 0 -- -- 72
2018-05-04 07:00:00 7.3 9 Sudoeste 24 Oeste 0 -- -- 73
2018-05-04 06:00:00 7.1 10 Sudoeste 26 Sudoeste 0 -- -- 72
2018-05-04 05:00:00 7.3 13 Sudoeste 24 Oeste 0 -- -- 71
2018-05-04 04:00:00 7.6 12 Oeste 26 Oeste 0 -- -- 69
2018-05-04 03:00:00 8.3 13 Oeste 31 Oeste 0 -- -- 67
2018-05-04 02:00:00 8.8 17 Oeste 37 Oeste 0 -- -- 65
2018-05-04 01:00:00 8.7 16 Oeste 32 Oeste 0 -- -- 64
2018-05-04 00:00:00 8.9 15 Oeste 35 Oeste 0 -- -- 62
2018-05-03 23:00:00 9.9 22 Oeste 42 Oeste 0 -- -- 59
2018-05-03 22:00:00 10.8 19 Oeste 38 Oeste 0 -- -- 57
2018-05-03 21:00:00 12.4 21 Oeste 53 Oeste 0 -- -- 55
2018-05-03 20:00:00 13.3 27 Oeste 57 Oeste 0 -- -- 53
2018-05-03 19:00:00 14.7 27 Noroeste 53 Oeste 0 -- -- 51
2018-05-03 18:00:00 15.4 26 Oeste 50 Oeste 0 -- -- 51
2018-05-03 17:00:00 16.4 27 Oeste 53 Oeste 0 -- -- 52
2018-05-03 16:00:00 15.4 28 Oeste 56 Noroeste 0 -- -- 51
2018-05-03 15:00:00 15.6 23 Oeste 51 Oeste 0 -- -- 52
2018-05-03 14:00:00 15.9 27 Oeste 48 Noroeste 0 -- -- 51
2018-05-03 13:00:00 14.2 24 Oeste 49 Oeste 0 -- -- 52
2018-05-03 12:00:00 14.2 26 Oeste 49 Noroeste 0 -- -- 53
2018-05-03 11:00:00 13.2 26 Oeste 55 Oeste 0 -- -- 55
2018-05-03 10:00:00 12.4 29 Oeste 51 Oeste 0 -- -- 59
2018-05-03 09:00:00 11.9 26 Oeste 61 Oeste 0 -- -- 66
2018-05-03 08:00:00 11.7 22 Noroeste 48 Noroeste 0 -- -- 74
2018-05-03 07:00:00 11.7 23 Oeste 44 Oeste 0 -- -- 75
2018-05-03 06:00:00 12.3 20 Oeste 45 Noroeste 0 -- -- 75
2018-05-03 05:00:00 12.6 21 Oeste 39 Noroeste 0 -- -- 73
2018-05-03 04:00:00 12.7 18 Oeste 37 Oeste 0 -- -- 75
2018-05-03 03:00:00 12.5 10 Oeste 25 Oeste 0 -- -- 74
2018-05-03 02:00:00 12.7 12 Oeste 41 Oeste 0 -- -- 72
2018-05-03 01:00:00 12.6 19 Oeste 39 Oeste 0 -- -- 70
2018-05-03 00:00:00 13.4 22 Oeste 41 Noroeste 0 -- -- 67
2018-05-02 23:00:00 14.1 19 Noroeste 41 Oeste 0 -- -- 60
2018-05-02 22:00:00 14.8 15 Noroeste 33 Noroeste 0 -- -- 52
2018-05-02 21:00:00 15.6 19 Noroeste 41 Noroeste 0 -- -- 47
2018-05-02 20:00:00 17.4 24 Noroeste 42 Noroeste 0 -- -- 41
2018-05-02 19:00:00 18.6 19 Noroeste 37 Noroeste 0 -- -- 38
2018-05-02 18:00:00 19.2 19 Noroeste 38 Noroeste 0 -- -- 36
2018-05-02 17:00:00 18.8 17 Oeste 30 Noroeste 0 -- -- 36
2018-05-02 16:00:00 19.4 18 Oeste 32 Noroeste 0 -- -- 36
2018-05-02 15:00:00 18 14 Noroeste 38 Oeste 0 -- -- 38
2018-05-02 14:00:00 18.5 14 Oeste 30 Noroeste 0 -- -- 38
2018-05-02 13:00:00 17.2 14 Noroeste 28 Oeste 0 -- -- 39
2018-05-02 12:00:00 16.1 13 Noroeste 30 Oeste 0 -- -- 40
2018-05-02 11:00:00 14 7 Oeste 18 Oeste 0 -- -- 49
2018-05-02 10:00:00 10.4 0 Calma 9 Oeste 0 -- -- 64
2018-05-02 09:00:00 7.3 0 Calma 5 Oeste 0 -- -- 75
2018-05-02 08:00:00 4.5 2 Oeste 4 Noroeste 0 -- -- 85
2018-05-02 07:00:00 2.8 0 Calma 7 Sudoeste 0 -- -- 87
2018-05-02 06:00:00 3.4 0 Calma 6 Sudoeste 0 -- -- 86
2018-05-02 05:00:00 3.6 0 Calma 8 Sudoeste 0 -- -- 83
2018-05-02 04:00:00 4.7 5 Sudoeste 10 Sur 0 -- -- 80
2018-05-02 03:00:00 4.8 4 Sudoeste 10 Sudoeste 0 -- -- 79
2018-05-02 02:00:00 4.9 3 Sur 7 Sur 0 -- -- 80
2018-05-02 01:00:00 5.5 0 Calma 6 Sur 0 -- -- 75
2018-05-02 00:00:00 6.5 0 Calma 5 Sudoeste 0 -- -- 71
2018-05-01 23:00:00 7.8 0 Calma 5 Sudoeste 0 -- -- 65
2018-05-01 22:00:00 9.6 3 Sudoeste 14 Noroeste 0 -- -- 55
2018-05-01 21:00:00 12.4 9 Noroeste 24 Noroeste 0 -- -- 44
2018-05-01 20:00:00 14.4 12 Noroeste 32 Oeste 0 -- -- 36
2018-05-01 19:00:00 15.6 13 Noroeste 30 Noroeste 0 -- -- 36
2018-05-01 18:00:00 15.6 18 Noroeste 30 Oeste 0 -- -- 36
2018-05-01 17:00:00 15.4 14 Noroeste 49 Noroeste 0 -- -- 40
2018-05-01 16:00:00 15.2 14 Oeste 28 Oeste 0 -- -- 41
2018-05-01 15:00:00 14.2 13 Noroeste 33 Oeste 0 -- -- 47
2018-05-01 14:00:00 12.5 13 Oeste 29 Noroeste 0 -- -- 52
2018-05-01 13:00:00 12.4 15 Oeste 30 Noroeste 0 -- -- 55
2018-05-01 12:00:00 10.4 17 Oeste 31 Noroeste 0 -- -- 62
2018-05-01 11:00:00 9.4 15 Oeste 31 Oeste 0 -- -- 67
2018-05-01 10:00:00 8.2 14 Oeste 27 Oeste 0 -- -- 71
2018-05-01 09:00:00 7.1 16 Oeste 25 Oeste 0 -- -- 75
2018-05-01 08:00:00 6.2 5 Sudoeste 14 Oeste 0 -- -- 82
2018-05-01 07:00:00 4.8 2 Sudoeste 12 Sudoeste 0 -- -- 84
2018-05-01 06:00:00 5.3 5 Oeste 15 Sudoeste 0 -- -- 83
2018-05-01 05:00:00 5.7 8 Sudoeste 13 Sudoeste 0 -- -- 81
2018-05-01 04:00:00 6.7 6 Sudoeste 16 Sudoeste 0 -- -- 78
2018-05-01 03:00:00 6.4 3 Sudoeste 10 Sur 0 -- -- 77
2018-05-01 02:00:00 7.3 5 Sur 21 Oeste 0 -- -- 76
2018-05-01 01:00:00 7.5 10 Oeste 26 Oeste 0 -- -- 72
2018-05-01 00:00:00 8.8 12 Oeste 20 Oeste 0 -- -- 65
2018-04-30 23:00:00 9.1 5 Sudoeste 18 Oeste 0 -- -- 63
2018-04-30 22:00:00 11 9 Oeste 20 Noroeste 0 -- -- 54
2018-04-30 21:00:00 11.4 12 Oeste 23 Oeste 0 -- -- 53
2018-04-30 20:00:00 12.1 13 Oeste 38 Oeste 0 -- -- 50
2018-04-30 19:00:00 14.4 6 Noroeste 15 Norte 0 -- -- 41
2018-04-30 18:00:00 15.3 5 Sur 19 Oeste 0 -- -- 41
2018-04-30 17:00:00 15.1 9 Noroeste 19 Noroeste 0 -- -- 43
2018-04-30 16:00:00 13.7 3 Norte 17 Sudoeste 0 -- -- 46
2018-04-30 15:00:00 14.3 6 Oeste 17 Sudoeste 0 -- -- 46
2018-04-30 14:00:00 13 4 Oeste 19 Sudoeste 0 -- -- 47
2018-04-30 13:00:00 12 5 Noroeste 20 Noroeste 0 -- -- 49
2018-04-30 12:00:00 11 10 Noroeste 26 Noroeste 0 -- -- 52
2018-04-30 11:00:00 10.6 9 Oeste 23 Noroeste 0 -- -- 56
2018-04-30 10:00:00 9.9 8 Noroeste 16 Noroeste 0 -- -- 59
2018-04-30 09:00:00 8.7 2 Sudoeste 4 Sudoeste 0 -- -- 71
2018-04-30 08:00:00 6.3 0 Calma 12 Oeste 0 -- -- 79
2018-04-30 07:00:00 6.9 6 Oeste 21 Sudoeste 0 -- -- 70
2018-04-30 06:00:00 5.1 0 Calma 6 Sur 0 -- -- 80
2018-04-30 05:00:00 6.7 3 Sudoeste 14 Sudoeste 0 -- -- 74
2018-04-30 04:00:00 7.9 5 Sudoeste 19 Sudoeste 0 -- -- 69
2018-04-30 03:00:00 5.7 0 Calma 9 Oeste 0 -- -- 82
2018-04-30 02:00:00 7.1 8 Oeste 11 Oeste 0 -- -- 72
2018-04-30 01:00:00 8.8 7 Sudoeste 14 Oeste 0 -- -- 62
2018-04-30 00:00:00 10.3 8 Oeste 23 Oeste 0 -- -- 55
2018-04-29 23:00:00 11 9 Sudoeste 25 Sudoeste 0 -- -- 53
2018-04-29 22:00:00 12.1 17 Sudoeste 32 Sudoeste 0 -- -- 51
2018-04-29 21:00:00 13.2 15 Sudoeste 37 Sudoeste 0 -- -- 48
2018-04-29 20:00:00 14.4 19 Oeste 38 Oeste 0 -- -- 45
2018-04-29 19:00:00 13.6 9 Noroeste 42 Oeste 0 -- -- 57
2018-04-29 18:00:00 15.5 21 Oeste 41 Oeste 0 -- -- 41
2018-04-29 17:00:00 14.6 19 Noroeste 35 Oeste 0 -- -- 46
2018-04-29 16:00:00 15 25 Oeste 50 Oeste 0 -- -- 42
2018-04-29 15:00:00 15.2 27 Oeste 51 Sudoeste 0 -- -- 44
2018-04-29 14:00:00 14.8 16 Sudoeste 49 Sudoeste 0 -- -- 51
2018-04-29 13:00:00 13.6 18 Oeste 38 Oeste 0 -- -- 49
2018-04-29 12:00:00 12.9 9 Noroeste 23 Oeste 0 -- -- 59
2018-04-29 11:00:00 12.6 7 Noroeste 16 Noroeste 0 -- -- 74
2018-04-29 10:00:00 12.1 0 Calma 9 Oeste 0 -- -- 89
2018-04-29 09:00:00 10.8 2 Sudoeste 8 Oeste 0 -- -- 94
2018-04-29 08:00:00 10.2 0 Calma 3 Sur 0 -- -- 95
2018-04-29 07:00:00 9.8 0 Calma 8 Sur 0 -- -- 96
2018-04-29 06:00:00 10 2 Sur 12 Sudoeste 0 -- -- 95
2018-04-29 05:00:00 10.1 5 Sudoeste 29 Oeste 5.6 -- -- 93
2018-04-29 04:00:00 12 17 Noroeste 38 Noroeste 0 -- -- 84
2018-04-29 03:00:00 13.7 6 Oeste 10 Este 0 -- -- 94
2018-04-29 02:00:00 14 4 Norte 11 Norte 0.7 -- -- 92
2018-04-29 01:00:00 15.6 4 Este 13 Norte 0 -- -- 79
2018-04-29 00:00:00 16.9 9 Norte 21 Sur 0 -- -- 67
2018-04-28 23:00:00 17.2 11 Sur 24 Sur 0 -- -- 67
2018-04-28 22:00:00 17.4 11 Sur 27 Sur 0 -- -- 69
2018-04-28 21:00:00 16.8 5 Sudeste 37 Sur 1 -- -- 82
2018-04-28 20:00:00 19.5 17 Sur 39 Sur 0 -- -- 52
2018-04-28 19:00:00 21.4 7 Sudeste 27 Sur 0 -- -- 50
2018-04-28 18:00:00 23.1 12 Sur 24 Sur 0 -- -- 43
2018-04-28 17:00:00 24.5 9 Sudeste 26 Norte 0 -- -- 43
2018-04-28 16:00:00 22.1 14 Nordeste 27 Nordeste 0 -- -- 55
2018-04-28 15:00:00 20.2 15 Nordeste 26 Este 0 -- -- 61
2018-04-28 14:00:00 18.6 12 Nordeste 23 Nordeste 0 -- -- 70
2018-04-28 13:00:00 16.7 10 Nordeste 22 Este 0 -- -- 70
2018-04-28 12:00:00 15.3 9 Nordeste 17 Nordeste 0 -- -- 71
2018-04-28 11:00:00 13.7 8 Este 13 Este 0 -- -- 73
2018-04-28 10:00:00 12.4 7 Nordeste 11 Nordeste 0 -- -- 78
2018-04-28 09:00:00 11.4 0 Calma -- -- -- -- -- 91
2018-04-28 08:00:00 8.2 0 Calma -- -- 0 -- -- 99
2018-04-28 07:00:00 7.3 0 Calma -- -- 0 -- -- 99
2018-04-28 06:00:00 8 0 Calma -- -- 0 -- -- 99
2018-04-28 05:00:00 9.2 0 Calma -- -- 0 -- -- 98
2018-04-28 04:00:00 9.4 0 Calma 4 Sudoeste 0 -- -- 97
2018-04-28 03:00:00 10.5 0 Calma 11 Noroeste 0 -- -- 93
2018-04-28 02:00:00 12.1 0 Calma 21 Oeste 0 -- -- 84
2018-04-28 01:00:00 13.2 4 Noroeste 17 Oeste 0 -- -- 91
2018-04-28 00:00:00 14.8 0 Calma 22 Noroeste 0 -- -- 93
2018-04-27 23:00:00 15.5 11 Noroeste 17 Noroeste 0.9 -- -- 92
2018-04-27 22:00:00 16.3 2 Este 11 Sudeste 0.7 -- -- 89
2018-04-27 21:00:00 17.4 3 Sudeste 17 Oeste 0.5 -- -- 83
2018-04-27 20:00:00 17.7 0 Calma 32 Sudeste 0 -- -- 80
2018-04-27 19:00:00 17.8 13 Sudeste 26 Este 0.5 -- -- 76
2018-04-27 18:00:00 18.5 6 Sudeste 25 Sur 0 -- -- 73
2018-04-27 17:00:00 18.5 5 Sur 28 Oeste 0.6 -- -- 79
2018-04-27 16:00:00 22.9 5 Este 18 Norte 0 -- -- 48
2018-04-27 15:00:00 22 10 Nordeste 22 Norte 0 -- -- 49
2018-04-27 14:00:00 23.4 10 Norte 19 Norte 0 -- -- 47
2018-04-27 13:00:00 23.6 4 Norte 14 Noroeste 0 -- -- 47
2018-04-27 12:00:00 21.1 4 Este 8 Este 0 -- -- 51
2018-04-27 11:00:00 19 0 Calma 7 Nordeste 0 -- -- 58
2018-04-27 10:00:00 16 0 Calma 8 Sur 0 -- -- 71
2018-04-27 09:00:00 12.5 4 Sur 8 Sur 0 -- -- 85
2018-04-27 08:00:00 9.8 0 Calma 5 Sudoeste 0 -- -- 92
2018-04-27 07:00:00 9.1 0 Calma -- -- 0 -- -- 92
2018-04-27 06:00:00 9.3 0 Calma -- -- 0 -- -- 92
2018-04-27 05:00:00 9.4 0 Calma 0 Calma 0 -- -- 90
2018-04-27 04:00:00 10.1 0 Calma 6 Oeste 0 -- -- 90
2018-04-27 03:00:00 10.8 3 Oeste 5 Noroeste 0 -- -- 87
2018-04-27 02:00:00 11.1 0 Calma 7 Sudoeste 0 -- -- 87
2018-04-27 01:00:00 12 2 Sudoeste 5 Oeste 0 -- -- 83
2018-04-27 00:00:00 12.9 0 Calma -- -- 0 -- -- 77
2018-04-26 23:00:00 14.1 0 Calma -- -- 0 -- -- 70
2018-04-26 22:00:00 15.9 0 Calma 5 Sur 0 -- -- 61
2018-04-26 21:00:00 18.4 0 Calma 6 Oeste 0 -- -- 51
2018-04-26 20:00:00 20.6 5 Noroeste 14 Noroeste 0 -- -- 45
2018-04-26 19:00:00 21.4 8 Noroeste 18 Noroeste 0 -- -- 45
2018-04-26 18:00:00 21.8 8 Noroeste 18 Noroeste 0 -- -- 45
2018-04-26 17:00:00 22 9 Noroeste 19 Noroeste 0 -- -- 46
2018-04-26 16:00:00 21.4 10 Oeste 21 Oeste 0 -- -- 48
2018-04-26 15:00:00 20.4 10 Oeste 22 Noroeste 0 -- -- 51
2018-04-26 14:00:00 18.4 9 Noroeste 20 Noroeste 0 -- -- 53
2018-04-26 13:00:00 17.5 13 Noroeste 27 Noroeste 0 -- -- 56
2018-04-26 12:00:00 16.4 11 Oeste 30 Oeste 0 -- -- 61
2018-04-26 11:00:00 15.4 13 Oeste 27 Oeste 0 -- -- 65
2018-04-26 10:00:00 14.3 13 Oeste 27 Oeste 0 -- -- 70
2018-04-26 09:00:00 12.8 8 Sudoeste 19 Sudoeste 0 -- -- 76
2018-04-26 08:00:00 10.8 4 Sudoeste 11 Sudoeste 0 -- -- 85
2018-04-26 07:00:00 10 0 Calma 14 Sudoeste 0 -- -- 86
2018-04-26 06:00:00 10.7 6 Sudoeste 13 Sudoeste 0 -- -- 84
2018-04-26 05:00:00 11.1 5 Sudoeste 11 Sudoeste 0 -- -- 83
2018-04-26 04:00:00 10.9 5 Oeste 10 Sudoeste 0 -- -- 83
2018-04-26 03:00:00 11.5 5 Sudoeste 13 Oeste 0 -- -- 81
2018-04-26 02:00:00 12 6 Sudoeste 23 Sudoeste 0 -- -- 78
2018-04-26 01:00:00 13.2 9 Oeste 29 Oeste 0 -- -- 74
2018-04-26 00:00:00 14.2 14 Oeste 43 Noroeste 0 -- -- 71
2018-04-25 23:00:00 15.7 22 Noroeste 44 Oeste 0 -- -- 68
2018-04-25 22:00:00 18 21 Noroeste 39 Noroeste 0 -- -- 64
2018-04-25 21:00:00 21.5 4 Nordeste 14 Nordeste 0 -- -- 39
2018-04-25 20:00:00 23.8 7 Nordeste 18 Este 0 -- -- 35
2018-04-25 19:00:00 25.1 9 Este 23 Este 0 -- -- 35
2018-04-25 18:00:00 25.8 9 Nordeste 17 Este 0 -- -- 36
2018-04-25 17:00:00 26 4 Norte 14 Norte 0 -- -- 36
2018-04-25 16:00:00 25.4 5 Norte 18 Norte 0 -- -- 36
2018-04-25 15:00:00 24.7 5 Noroeste 16 Norte 0 -- -- 39
2018-04-25 14:00:00 22.5 8 Oeste 14 Noroeste 0 -- -- 46
2018-04-25 13:00:00 20.9 4 Oeste 13 Oeste 0 -- -- 50
2018-04-25 12:00:00 19.3 6 Oeste 12 Oeste 0 -- -- 58
2018-04-25 11:00:00 16.9 6 Oeste 15 Oeste 0 -- -- 63
2018-04-25 10:00:00 15 3 Sur 8 Sur 0 -- -- 72
2018-04-25 09:00:00 11.9 2 Sudoeste 6 Sudoeste 0 -- -- 76
2018-04-25 08:00:00 9 2 Sur 7 Sur 0 -- -- 87
2018-04-25 07:00:00 8.2 0 Calma 4 Oeste 0 -- -- 87
2018-04-25 06:00:00 8.7 0 Calma 8 Sudoeste 0 -- -- 87
2018-04-25 05:00:00 8.7 0 Calma -- -- 0 -- -- 83
2018-04-25 04:00:00 10.2 0 Calma -- -- 0 -- -- 78
2018-04-25 03:00:00 11.2 0 Calma 4 Oeste 0 -- -- 79
2018-04-25 02:00:00 12.3 0 Calma -- -- 0 -- -- 72
2018-04-25 01:00:00 13.2 0 Calma 5 Oeste 0 -- -- 66
2018-04-25 00:00:00 15.2 0 Calma 6 Sudoeste 0 -- -- 61
2018-04-24 23:00:00 17.3 0 Calma 10 Nordeste 0 -- -- 53
2018-04-24 22:00:00 19.9 0 Calma 12 Este 0 -- -- 42
2018-04-24 21:00:00 21.2 5 Este 14 Este 0 -- -- 38
2018-04-24 20:00:00 23.1 8 Este 15 Sudeste 0 -- -- 34
2018-04-24 19:00:00 24.6 6 Sudeste 19 Sudeste 0 -- -- 32
2018-04-24 18:00:00 25.8 11 Sudeste 32 Sur 0 -- -- 33
2018-04-24 17:00:00 26.2 11 Nordeste 24 Este 0 -- -- 32
2018-04-24 16:00:00 26.2 6 Este 28 Norte 0 -- -- 33
2018-04-24 15:00:00 24.5 12 Nordeste 24 Norte 0 -- -- 41
2018-04-24 14:00:00 22.4 10 Nordeste 19 Este 0 -- -- 50
2018-04-24 13:00:00 20.8 8 Nordeste 22 Nordeste 0 -- -- 58
2018-04-24 12:00:00 19.9 8 Nordeste 16 Este 0 -- -- 60
2018-04-24 11:00:00 18 0 Calma 7 Este 0 -- -- 63
2018-04-24 10:00:00 15.1 0 Calma 6 Sur 0 -- -- 73
2018-04-24 09:00:00 12.4 0 Calma 5 Sur 0 -- -- 86
2018-04-24 08:00:00 9.5 0 Calma 4 Sudoeste 0 -- -- 94
2018-04-24 07:00:00 9.4 0 Calma -- -- 0 -- -- 94
2018-04-24 06:00:00 10.2 0 Calma -- -- 0 -- -- 93
2018-04-24 05:00:00 10.3 0 Calma -- -- 0 -- -- 93
2018-04-24 04:00:00 11 0 Calma -- -- 0 -- -- 91
2018-04-24 03:00:00 11.5 0 Calma 8 Sudoeste 0 -- -- 89
2018-04-24 02:00:00 12.2 2 Sur 5 Sur 0 -- -- 86
2018-04-24 01:00:00 13.4 0 Calma 10 Norte 0 -- -- 79
2018-04-24 00:00:00 13.8 4 Noroeste 8 Sur 0 -- -- 76
2018-04-23 23:00:00 14 5 Sur 8 Sur 0 -- -- 81
2018-04-23 22:00:00 14.7 2 Sur 5 Sur 0 -- -- 77
2018-04-23 21:00:00 16.5 0 Calma 4 Este 0 -- -- 68
2018-04-23 20:00:00 18.6 0 Calma 7 Este 0 -- -- 62
2018-04-23 19:00:00 19.5 3 Nordeste 8 Norte 0 -- -- 56
2018-04-23 18:00:00 18.6 5 Noroeste 17 Norte 0 -- -- 60
2018-04-23 17:00:00 19.2 9 Nordeste 16 Nordeste 0 -- -- 57
2018-04-23 16:00:00 18.5 9 Noroeste 26 Noroeste 0 -- -- 59
2018-04-23 15:00:00 19.7 7 Nordeste 15 Este 0 -- -- 56
2018-04-23 14:00:00 18.5 11 Noroeste 23 Noroeste 0 -- -- 63
2018-04-23 13:00:00 19.2 4 Noroeste 11 Noroeste 0 -- -- 63
2018-04-23 12:00:00 17.4 8 Norte 12 Norte 0 -- -- 67
2018-04-23 11:00:00 16.4 0 Calma 6 Nordeste 0 -- -- 70
2018-04-23 10:00:00 15.3 4 Sur 17 Sur 0 -- -- 75
2018-04-23 09:00:00 13.8 0 Calma 7 Sudoeste 0 -- -- 82
2018-04-23 08:00:00 12.2 0 Calma 9 Sur 0 -- -- 87
2018-04-23 07:00:00 11.6 0 Calma 5 Sur 0 -- -- 90
2018-04-23 06:00:00 11.9 0 Calma 9 Oeste 0 -- -- 88
2018-04-23 05:00:00 12.4 0 Calma 4 Oeste 0 -- -- 86
2018-04-23 04:00:00 12.9 0 Calma 6 Oeste 0 -- -- 82
2018-04-23 03:00:00 14 6 Oeste 13 Oeste 0 -- -- 73
2018-04-23 02:00:00 14.9 3 Norte 11 Este 0 -- -- 64
2018-04-23 01:00:00 14.9 3 Este 6 Nordeste 0 -- -- 60
2018-04-23 00:00:00 15.8 5 Norte 9 Norte 0 -- -- 54
2018-04-22 23:00:00 18.2 5 Este 11 Este 0 -- -- 47
2018-04-22 22:00:00 19 7 Este 12 Este 0 -- -- 46
2018-04-22 21:00:00 20.3 6 Este 15 Este 0 -- -- 44
2018-04-22 20:00:00 21.7 9 Este 21 Sudeste 0 -- -- 42
2018-04-22 19:00:00 23.4 5 Este 17 Sudeste 0 -- -- 43
2018-04-22 18:00:00 22.7 3 Norte 19 Este 0 -- -- 47
2018-04-22 17:00:00 23 11 Nordeste 23 Este 0 -- -- 46
2018-04-22 16:00:00 22.6 12 Nordeste 22 Nordeste 0 -- -- 45
2018-04-22 15:00:00 20.9 9 Norte 14 Norte 0 -- -- 48
2018-04-22 14:00:00 19.9 11 Norte 18 Norte 0 -- -- 49
2018-04-22 13:00:00 20.1 2 Sur 8 Nordeste 0 -- -- 42
2018-04-22 12:00:00 19.4 5 Este 13 Norte 0 -- -- 44
2018-04-22 11:00:00 17.7 5 Noroeste 9 Noroeste 0 -- -- 59
2018-04-22 10:00:00 14.8 3 Sudoeste 6 Sudoeste 0 -- -- 66
2018-04-22 09:00:00 11.8 0 Calma -- -- 0 -- -- 80
2018-04-22 08:00:00 8.8 0 Calma -- -- 0 -- -- 88
2018-04-22 07:00:00 8.8 0 Calma -- -- 0 -- -- 87
2018-04-22 06:00:00 9.3 0 Calma -- -- 0 -- -- 87
2018-04-22 05:00:00 9.5 0 Calma 6 Oeste 0 -- -- 84
2018-04-22 04:00:00 10.4 0 Calma 4 Oeste 0 -- -- 79
2018-04-22 03:00:00 11.2 0 Calma 6 Este 0 -- -- 73
2018-04-22 02:00:00 13.1 0 Calma 3 Norte 0 -- -- 63
2018-04-22 01:00:00 14.1 0 Calma 7 Sudeste 0 -- -- 59
2018-04-22 00:00:00 16 0 Calma 10 Sudeste 0 -- -- 52